createdAt,value
2018-08-24T00:01:04.079Z,5.53
2018-08-24T00:03:35.643Z,3.90
2018-08-24T00:06:07.170Z,3.47
2018-08-24T00:08:38.481Z,5.87
2018-08-24T00:11:10.315Z,3.70
2018-08-24T00:13:41.640Z,3.80
2018-08-24T00:16:12.992Z,3.87
2018-08-24T00:18:44.237Z,3.97
2018-08-24T00:21:15.871Z,4.77
2018-08-24T00:23:47.187Z,4.33
2018-08-24T00:26:18.176Z,7.17
2018-08-24T00:28:49.374Z,4.07
2018-08-24T00:31:20.381Z,6.83
2018-08-24T00:33:54.119Z,4.07
2018-08-24T00:36:26.854Z,3.93
2018-08-24T00:38:58.007Z,5.93
2018-08-24T00:41:29.412Z,4.10
2018-08-24T00:44:00.499Z,4.07
2018-08-24T00:46:31.835Z,5.13
2018-08-24T00:49:03.251Z,3.80
2018-08-24T00:51:35.835Z,5.33
2018-08-24T00:54:07.216Z,4.13
2018-08-24T00:56:38.428Z,6.47
2018-08-24T00:59:09.788Z,4.33
2018-08-24T01:01:41.169Z,4.40
2018-08-24T01:04:12.352Z,4.73
2018-08-24T01:06:43.548Z,4.27
2018-08-24T01:09:14.709Z,5.67
2018-08-24T01:11:50.722Z,4.37
2018-08-24T01:14:22.309Z,3.70
2018-08-24T01:16:58.479Z,4.93
2018-08-24T01:19:29.588Z,3.90
2018-08-24T01:22:00.721Z,3.83
2018-08-24T01:24:31.961Z,5.67
2018-08-24T01:27:03.811Z,4.63
2018-08-24T01:29:36.611Z,3.80
2018-08-24T01:32:07.953Z,4.47
2018-08-24T01:34:39.395Z,4.50
2018-08-24T01:37:10.664Z,3.73
2018-08-24T01:39:42.001Z,3.50
2018-08-24T01:42:13.010Z,5.43
2018-08-24T01:44:44.397Z,4.60
2018-08-24T01:47:15.847Z,4.00
2018-08-24T01:49:47.192Z,7.53
2018-08-24T01:52:18.376Z,3.70
2018-08-24T01:54:49.979Z,6.27
2018-08-24T01:57:21.175Z,3.40
2018-08-24T01:59:52.523Z,5.13
2018-08-24T02:02:23.875Z,3.57
2018-08-24T02:04:55.604Z,4.10
2018-08-24T02:07:26.882Z,3.63
2018-08-24T02:09:58.088Z,4.97
2018-08-24T02:12:34.143Z,3.77
2018-08-24T02:15:05.247Z,3.87
2018-08-24T02:17:41.454Z,3.70
2018-08-24T02:20:17.515Z,5.27
2018-08-24T02:22:53.812Z,3.87
2018-08-24T02:25:25.161Z,4.77
2018-08-24T02:27:56.461Z,4.17
2018-08-24T02:30:27.959Z,5.40
2018-08-24T02:32:59.022Z,4.50
2018-08-24T02:35:30.107Z,3.93
2018-08-24T02:38:01.500Z,4.07
2018-08-24T02:40:32.645Z,3.83
2018-08-24T02:43:03.895Z,3.53
2018-08-24T02:45:35.167Z,4.23
2018-08-24T02:48:06.403Z,3.67
2018-08-24T02:50:38.340Z,4.00
2018-08-24T02:53:09.619Z,3.53
2018-08-24T02:55:40.943Z,3.50
2018-08-24T02:58:12.387Z,3.33
2018-08-24T03:00:43.708Z,4.03
2018-08-24T03:03:15.187Z,4.10
2018-08-24T03:05:46.644Z,5.93
2018-08-24T03:08:17.919Z,3.20
2018-08-24T03:10:49.299Z,4.93
2018-08-24T03:13:20.686Z,3.20
2018-08-24T03:15:51.830Z,3.17
2018-08-24T03:18:23.043Z,3.37
2018-08-24T03:20:54.285Z,4.17
2018-08-24T03:23:25.616Z,4.63
2018-08-24T03:25:56.816Z,4.63
2018-08-24T03:28:27.907Z,3.13
2018-08-24T03:30:59.008Z,5.23
2018-08-24T03:33:30.198Z,3.40
2018-08-24T03:36:01.442Z,4.23
2018-08-24T03:38:32.600Z,6.37
2018-08-24T03:41:04.023Z,3.43
2018-08-24T03:43:36.231Z,3.20
2018-08-24T03:46:07.573Z,3.20
2018-08-24T03:48:38.925Z,6.63
2018-08-24T03:51:10.121Z,4.37
2018-08-24T03:53:41.312Z,3.50
2018-08-24T03:56:12.302Z,4.17
2018-08-24T03:58:43.508Z,3.90
2018-08-24T04:01:15.360Z,4.03
2018-08-24T04:03:46.661Z,5.67
2018-08-24T04:06:18.072Z,4.13
2018-08-24T04:08:49.629Z,4.07
2018-08-24T04:11:20.811Z,4.30
2018-08-24T04:13:52.000Z,4.00
2018-08-24T04:16:23.190Z,3.80
2018-08-24T04:18:54.540Z,3.83
2018-08-24T04:21:25.775Z,4.33
2018-08-24T04:23:56.981Z,5.03
2018-08-24T04:26:28.419Z,3.80
2018-08-24T04:28:59.727Z,3.70
2018-08-24T04:31:30.760Z,5.10
2018-08-24T04:34:02.336Z,5.93
2018-08-24T04:36:34.074Z,4.93
2018-08-24T04:39:07.164Z,3.53
2018-08-24T04:41:38.639Z,5.87
2018-08-24T04:44:10.166Z,3.97
2018-08-24T04:47:44.627Z,5.53
2018-08-24T04:50:15.844Z,4.77
2018-08-24T04:52:47.400Z,5.83
2018-08-24T04:55:19.203Z,4.20
2018-08-24T04:57:50.807Z,4.30
2018-08-24T05:00:22.676Z,5.00
2018-08-24T05:02:54.044Z,4.13
2018-08-24T05:05:25.059Z,4.60
2018-08-24T05:07:56.100Z,5.70
2018-08-24T05:10:27.247Z,4.47
2018-08-24T05:12:59.619Z,4.07
2018-08-24T05:15:30.825Z,4.53
2018-08-24T05:18:02.285Z,4.70
2018-08-24T05:20:33.563Z,7.20
2018-08-24T05:23:04.779Z,5.83
2018-08-24T05:25:35.956Z,6.27
2018-08-24T05:28:07.446Z,7.00
2018-08-24T05:30:38.772Z,6.30
2018-08-24T05:33:10.203Z,4.17
2018-08-24T05:35:42.642Z,6.40
2018-08-24T05:38:13.722Z,5.50
2018-08-24T05:40:44.916Z,4.37
2018-08-24T05:43:16.420Z,4.43
2018-08-24T05:45:47.738Z,5.60
2018-08-24T05:48:19.389Z,5.47
2018-08-24T05:50:50.632Z,5.27
2018-08-24T05:53:21.824Z,4.77
2018-08-24T05:55:53.488Z,4.60
2018-08-24T05:58:24.848Z,5.67
2018-08-24T06:00:56.272Z,6.40
2018-08-24T06:03:27.588Z,6.80
2018-08-24T06:06:03.507Z,4.67
2018-08-24T06:08:34.684Z,5.73
2018-08-24T06:11:05.883Z,4.70
2018-08-24T06:13:38.043Z,7.13
2018-08-24T06:16:09.507Z,4.87
2018-08-24T06:18:40.999Z,4.77
2018-08-24T06:21:12.092Z,6.30
2018-08-24T06:23:43.228Z,5.63
2018-08-24T06:26:14.583Z,6.93
2018-08-24T06:28:45.589Z,6.93
2018-08-24T06:31:16.967Z,4.87
2018-08-24T06:33:48.839Z,5.00
2018-08-24T06:36:19.973Z,4.80
2018-08-24T06:38:51.347Z,5.30
2018-08-24T06:41:22.718Z,6.40
2018-08-24T06:43:53.717Z,4.33
2018-08-24T06:46:25.119Z,5.63
2018-08-24T06:48:56.316Z,4.67
2018-08-24T06:51:28.744Z,4.60
2018-08-24T06:54:00.154Z,4.57
2018-08-24T06:56:31.439Z,4.20
2018-08-24T06:59:02.631Z,4.60
2018-08-24T07:01:33.635Z,5.83
2018-08-24T07:04:04.770Z,4.70
2018-08-24T07:06:35.824Z,5.90
2018-08-24T07:09:09.007Z,3.37
2018-08-24T07:11:40.354Z,4.30
2018-08-24T07:14:11.739Z,3.30
2018-08-24T07:16:43.154Z,5.97
2018-08-24T07:19:14.540Z,2.80
2018-08-24T07:21:45.745Z,4.20
2018-08-24T07:24:17.139Z,3.70
2018-08-24T07:26:48.487Z,5.43
2018-08-24T07:29:20.001Z,5.27
2018-08-24T07:31:51.857Z,3.17
2018-08-24T07:34:22.858Z,3.40
2018-08-24T07:36:54.564Z,3.47
2018-08-24T07:39:26.115Z,3.27
2018-08-24T07:41:57.319Z,2.77
2018-08-24T07:44:28.771Z,2.20
2018-08-24T07:47:00.040Z,2.70
2018-08-24T07:49:31.391Z,2.13
2018-08-24T07:52:03.082Z,2.30
2018-08-24T07:54:34.451Z,2.90
2018-08-24T07:57:05.903Z,2.33
2018-08-24T07:59:36.959Z,2.80
2018-08-24T08:02:08.358Z,2.80
2018-08-24T08:04:40.665Z,2.20
2018-08-24T08:07:18.669Z,2.47
2018-08-24T08:09:49.919Z,1.80
2018-08-24T08:12:21.682Z,4.30
2018-08-24T08:15:11.479Z,4.33
2018-08-24T08:17:43.653Z,3.63
2018-08-24T08:20:15.279Z,3.57
2018-08-24T08:22:46.626Z,2.90
2018-08-24T08:25:18.243Z,3.20
2018-08-24T08:27:49.697Z,3.27
2018-08-24T08:30:20.907Z,2.47
2018-08-24T08:32:52.098Z,3.37
2018-08-24T08:35:23.315Z,5.63
2018-08-24T08:37:54.311Z,5.80
2018-08-24T08:40:25.972Z,3.60
2018-08-24T08:42:57.279Z,2.87
2018-08-24T08:45:28.344Z,2.73
2018-08-24T08:47:59.651Z,2.83
2018-08-24T08:50:30.848Z,2.87
2018-08-24T08:53:01.892Z,2.40
2018-08-24T08:55:33.240Z,5.17
2018-08-24T08:58:04.503Z,3.13
2018-08-24T09:00:35.835Z,3.43
2018-08-24T09:03:07.184Z,2.27
2018-08-24T09:05:39.048Z,3.03
2018-08-24T09:08:10.396Z,2.27
2018-08-24T09:10:41.744Z,1.83
2018-08-24T09:13:12.956Z,2.73
2018-08-24T09:15:44.135Z,3.07
2018-08-24T09:18:20.646Z,2.93
2018-08-24T09:20:56.422Z,1.83
2018-08-24T09:23:32.113Z,1.60
2018-08-24T09:26:08.063Z,1.60
2018-08-24T09:28:40.544Z,1.93
2018-08-24T09:31:18.553Z,1.33
2018-08-24T09:33:49.797Z,2.60
2018-08-24T09:36:22.843Z,1.90
2018-08-24T09:38:54.302Z,2.23
2018-08-24T09:41:26.240Z,3.13
2018-08-24T09:43:59.138Z,1.50
2018-08-24T09:46:35.368Z,1.40
2018-08-24T09:49:11.807Z,2.53
2018-08-24T09:51:43.130Z,1.60
2018-08-24T09:54:14.319Z,3.20
2018-08-24T09:56:45.772Z,1.73
2018-08-24T09:59:17.972Z,3.30
2018-08-24T10:01:54.191Z,2.70
2018-08-24T10:04:30.516Z,3.03
2018-08-24T10:07:06.817Z,2.33
2018-08-24T10:09:37.960Z,3.00
2018-08-24T10:12:09.213Z,2.23
2018-08-24T10:14:40.351Z,3.37
2018-08-24T10:17:11.724Z,36.87
2018-08-24T10:19:43.119Z,7.27
2018-08-24T10:22:15.090Z,4.83
2018-08-24T10:24:46.270Z,4.93
2018-08-24T10:27:17.517Z,7.13
2018-08-24T10:29:49.002Z,6.33
2018-08-24T10:32:20.235Z,3.30
2018-08-24T10:34:51.444Z,3.57
2018-08-24T10:37:22.617Z,2.30
2018-08-24T10:39:53.636Z,2.77
2018-08-24T10:42:25.019Z,2.73
2018-08-24T10:44:56.023Z,3.00
2018-08-24T10:47:27.461Z,10.43
2018-08-24T10:49:58.791Z,3.40
2018-08-24T10:52:29.989Z,6.10
2018-08-24T10:55:01.298Z,3.27
2018-08-24T10:57:32.365Z,3.77
2018-08-24T11:00:03.691Z,1.70
2018-08-24T11:02:34.940Z,2.97
2018-08-24T11:05:06.201Z,3.83
2018-08-24T11:07:37.561Z,3.20
2018-08-24T11:10:08.915Z,3.73
2018-08-24T11:12:40.091Z,1.97
2018-08-24T11:15:11.497Z,2.60
2018-08-24T11:17:47.708Z,2.10
2018-08-24T11:20:18.767Z,1.80
2018-08-24T11:22:50.458Z,1.70
2018-08-24T11:25:21.907Z,2.57
2018-08-24T11:27:52.999Z,1.87
2018-08-24T11:30:24.620Z,2.47
2018-08-24T11:32:55.721Z,2.53
2018-08-24T11:35:26.922Z,2.03
2018-08-24T11:37:57.936Z,1.00
2018-08-24T11:40:29.391Z,1.80
2018-08-24T11:43:00.535Z,1.00
2018-08-24T11:45:31.883Z,1.07
2018-08-24T11:48:03.553Z,2.27
2018-08-24T11:50:34.684Z,1.43
2018-08-24T11:53:06.048Z,3.27
2018-08-24T11:55:37.121Z,4.80
2018-08-24T11:58:08.281Z,4.60
2018-08-24T12:00:39.511Z,1.07
2018-08-24T12:03:10.834Z,3.30
2018-08-24T12:05:43.594Z,7.27
2018-08-24T12:08:14.991Z,4.00
2018-08-24T12:10:46.443Z,1.67
2018-08-24T12:13:17.768Z,2.50
2018-08-24T12:15:49.123Z,1.57
2018-08-24T12:18:21.030Z,1.30
2018-08-24T12:20:52.117Z,1.30
2018-08-24T12:23:23.365Z,4.23
2018-08-24T12:25:54.754Z,2.23
2018-08-24T12:28:26.347Z,1.37
2018-08-24T12:30:57.716Z,2.53
2018-08-24T12:33:29.115Z,2.90
2018-08-24T12:36:00.256Z,1.67
2018-08-24T12:38:31.639Z,3.67
2018-08-24T12:41:02.882Z,1.70
2018-08-24T12:43:34.072Z,2.03
2018-08-24T12:46:05.607Z,1.67
2018-08-24T12:48:36.817Z,2.10
2018-08-24T12:51:08.045Z,2.43
2018-08-24T12:53:40.156Z,1.70
2018-08-24T12:56:15.957Z,2.00
2018-08-24T12:58:47.920Z,3.80
2018-08-24T13:01:19.926Z,2.13
2018-08-24T13:03:51.448Z,4.67
2018-08-24T13:06:22.956Z,2.27
2018-08-24T13:08:54.191Z,2.77
2018-08-24T13:11:25.383Z,2.90
2018-08-24T13:13:56.614Z,2.63
2018-08-24T13:16:27.792Z,3.47
2018-08-24T13:18:59.164Z,3.20
2018-08-24T13:21:30.384Z,2.73
2018-08-24T13:24:01.551Z,1.90
2018-08-24T13:26:32.719Z,1.80
2018-08-24T13:29:03.764Z,3.03
2018-08-24T13:31:35.192Z,2.43
2018-08-24T13:34:06.331Z,1.77
2018-08-24T13:36:37.642Z,3.93
2018-08-24T13:39:10.535Z,3.97
2018-08-24T13:41:42.428Z,4.13
2018-08-24T13:44:13.947Z,3.43
2018-08-24T13:46:45.211Z,2.80
2018-08-24T13:49:16.679Z,3.40
2018-08-24T13:51:47.935Z,2.97
2018-08-24T13:54:18.974Z,2.03
2018-08-24T13:56:50.221Z,4.90
2018-08-24T13:59:21.418Z,3.57
2018-08-24T14:01:52.616Z,5.13
2018-08-24T14:04:23.919Z,5.43
2018-08-24T14:06:55.471Z,12.60
2018-08-24T14:09:26.713Z,3.83
2018-08-24T14:11:57.927Z,3.37
2018-08-24T14:14:29.110Z,3.27
2018-08-24T14:17:00.292Z,5.00
2018-08-24T14:19:31.654Z,3.30
2018-08-24T14:22:02.702Z,4.80
2018-08-24T14:24:34.038Z,4.30
2018-08-24T14:27:05.284Z,4.50
2018-08-24T14:29:36.467Z,5.07
2018-08-24T14:32:08.022Z,6.03
2018-08-24T14:34:39.027Z,6.20
2018-08-24T14:37:10.526Z,7.03
2018-08-24T14:39:42.083Z,6.70
2018-08-24T14:42:13.673Z,5.60
2018-08-24T14:44:44.990Z,6.20
2018-08-24T14:47:16.474Z,5.77
2018-08-24T14:49:48.544Z,5.97
2018-08-24T14:52:19.903Z,9.47
2018-08-24T14:54:51.568Z,7.07
2018-08-24T14:57:23.217Z,8.70
2018-08-24T14:59:54.476Z,8.87
2018-08-24T15:02:25.488Z,8.37
2018-08-24T15:04:57.091Z,10.03
2018-08-24T15:07:28.912Z,7.90
2018-08-24T15:10:00.311Z,8.87
2018-08-24T15:12:31.600Z,9.70
2018-08-24T15:15:03.806Z,10.27
2018-08-24T15:17:34.990Z,10.17
2018-08-24T15:20:07.154Z,8.70
2018-08-24T15:22:38.645Z,9.10
2018-08-24T15:25:09.802Z,9.67
2018-08-24T15:27:40.944Z,10.67
2018-08-24T15:30:13.161Z,9.53
2018-08-24T15:32:44.298Z,10.87
2018-08-24T15:35:16.171Z,10.37
2018-08-24T15:37:47.360Z,9.43
2018-08-24T15:40:18.659Z,9.93
2018-08-24T15:42:49.835Z,9.83
2018-08-24T15:45:21.515Z,9.33
2018-08-24T15:47:53.471Z,9.53
2018-08-24T15:50:24.803Z,10.07
2018-08-24T15:52:55.967Z,9.50
2018-08-24T15:55:28.237Z,9.03
2018-08-24T15:57:59.464Z,9.70
2018-08-24T16:00:30.919Z,10.33
2018-08-24T16:03:02.187Z,9.27
2018-08-24T16:05:33.577Z,11.03
2018-08-24T16:08:04.810Z,12.53
2018-08-24T16:10:36.173Z,12.57
2018-08-24T16:13:07.350Z,12.87
2018-08-24T16:15:38.983Z,9.73
2018-08-24T16:18:15.054Z,10.50
2018-08-24T16:20:46.162Z,11.30
2018-08-24T16:23:17.153Z,12.40
2018-08-24T16:25:48.829Z,10.27
2018-08-24T16:28:20.327Z,8.97
2018-08-24T16:30:51.508Z,9.77
2018-08-24T16:33:23.518Z,11.03
2018-08-24T16:35:54.719Z,9.20
2018-08-24T16:38:26.068Z,9.00
2018-08-24T16:40:57.144Z,11.40
2018-08-24T16:43:28.454Z,9.37
2018-08-24T16:45:59.865Z,10.50
2018-08-24T16:48:30.849Z,10.87
2018-08-24T16:51:01.936Z,10.20
2018-08-24T16:53:33.617Z,9.33
2018-08-24T16:56:04.653Z,8.87
2018-08-24T16:58:36.075Z,10.27
2018-08-24T17:01:07.859Z,8.97
2018-08-24T17:03:39.030Z,10.87
2018-08-24T17:06:10.458Z,10.00
2018-08-24T17:08:41.547Z,9.83
2018-08-24T17:11:12.739Z,9.90
2018-08-24T17:13:43.783Z,11.10
2018-08-24T17:16:15.023Z,9.50
2018-08-24T17:18:46.323Z,10.93
2018-08-24T17:21:17.730Z,9.40
2018-08-24T17:23:48.976Z,8.63
2018-08-24T17:26:20.583Z,11.73
2018-08-24T17:28:51.716Z,13.47
2018-08-24T17:31:23.167Z,10.87
2018-08-24T17:33:54.478Z,12.17
2018-08-24T17:36:25.501Z,10.73
2018-08-24T17:38:56.824Z,15.03
2018-08-24T17:41:28.016Z,14.90
2018-08-24T17:43:59.406Z,13.77
2018-08-24T17:46:30.619Z,14.10
2018-08-24T17:49:01.995Z,9.33
2018-08-24T17:51:33.044Z,8.73
2018-08-24T17:54:04.545Z,9.23
2018-08-24T17:56:35.627Z,11.10
2018-08-24T17:59:07.023Z,8.27
2018-08-24T18:01:38.180Z,9.43
2018-08-24T18:04:09.172Z,9.00
2018-08-24T18:06:41.566Z,10.43
2018-08-24T18:09:13.578Z,18.53
2018-08-24T18:11:48.138Z,12.97
2018-08-24T18:14:19.250Z,10.20
2018-08-24T18:16:50.415Z,13.30
2018-08-24T18:19:21.605Z,11.33
2018-08-24T18:21:53.180Z,12.60
2018-08-24T18:24:24.625Z,8.97
2018-08-24T18:26:55.979Z,11.07
2018-08-24T18:29:27.171Z,8.83
2018-08-24T18:31:58.588Z,8.37
2018-08-24T18:34:29.955Z,8.53
2018-08-24T18:37:01.171Z,9.77
2018-08-24T18:39:32.347Z,11.03
2018-08-24T18:42:03.712Z,10.30
2018-08-24T18:44:34.908Z,11.40
2018-08-24T18:47:06.111Z,9.90
2018-08-24T18:49:37.500Z,9.20
2018-08-24T18:52:08.784Z,9.23
2018-08-24T18:54:40.135Z,11.17
2018-08-24T18:57:11.277Z,9.00
2018-08-24T18:59:42.652Z,9.60
2018-08-24T19:02:14.316Z,7.30
2018-08-24T19:04:45.490Z,9.73
2018-08-24T19:07:16.825Z,9.27
2018-08-24T19:09:48.249Z,10.83
2018-08-24T19:12:24.388Z,8.63
2018-08-24T19:14:56.555Z,9.70
2018-08-24T19:17:32.786Z,10.10
2018-08-24T19:20:09.149Z,10.43
2018-08-24T19:22:44.187Z,9.37
2018-08-24T19:25:15.661Z,10.40
2018-08-24T19:27:51.904Z,8.63
2018-08-24T19:30:28.103Z,9.97
2018-08-24T19:32:59.206Z,9.93
2018-08-24T19:35:30.920Z,8.37
2018-08-24T19:38:02.047Z,10.13
2018-08-24T19:40:38.210Z,9.13
2018-08-24T19:43:09.537Z,8.47
2018-08-24T19:45:40.877Z,9.83
2018-08-24T19:48:17.358Z,8.43
2018-08-24T19:50:48.744Z,9.37
2018-08-24T19:53:19.986Z,9.60
2018-08-24T19:55:52.187Z,9.13
2018-08-24T19:58:28.372Z,8.37
2018-08-24T20:00:59.429Z,9.03
2018-08-24T20:03:30.662Z,11.50
2018-08-24T20:06:06.854Z,8.90
2018-08-24T20:08:43.221Z,7.97
2018-08-24T20:11:14.628Z,10.23
2018-08-24T20:13:45.821Z,10.60
2018-08-24T20:16:21.999Z,10.10
2018-08-24T20:18:53.183Z,9.73
2018-08-24T20:21:24.760Z,9.07
2018-08-24T20:23:56.088Z,10.07
2018-08-24T20:26:27.351Z,10.10
2018-08-24T20:28:58.477Z,8.87
2018-08-24T20:31:29.830Z,9.20
2018-08-24T20:34:00.849Z,9.07
2018-08-24T20:36:32.241Z,9.77
2018-08-24T20:39:03.564Z,9.83
2018-08-24T20:41:34.805Z,10.20
2018-08-24T20:44:06.518Z,10.60
2018-08-24T20:46:37.857Z,7.60
2018-08-24T20:49:09.310Z,10.33
2018-08-24T20:51:40.567Z,10.50
2018-08-24T20:54:11.742Z,9.47
2018-08-24T20:56:43.091Z,8.97
2018-08-24T20:59:14.336Z,9.20
2018-08-24T21:01:45.710Z,8.27
2018-08-24T21:04:16.974Z,9.57
2018-08-24T21:06:48.567Z,10.13
2018-08-24T21:09:19.893Z,9.87
2018-08-24T21:11:51.159Z,11.40
2018-08-24T21:14:22.610Z,7.50
2018-08-24T21:16:53.976Z,9.50
2018-08-24T21:19:25.218Z,9.70
2018-08-24T21:21:56.451Z,9.47
2018-08-24T21:24:27.949Z,8.83
2018-08-24T21:26:59.538Z,8.97
2018-08-24T21:29:30.783Z,9.07
2018-08-24T21:32:02.484Z,8.90
2018-08-24T21:34:33.792Z,9.87
2018-08-24T21:37:05.351Z,11.87
2018-08-24T21:39:36.708Z,9.67
2018-08-24T21:42:07.860Z,7.37
2018-08-24T21:44:39.695Z,9.20
2018-08-24T21:47:10.867Z,10.57
2018-08-24T21:49:42.065Z,9.83
2018-08-24T21:52:13.444Z,11.50
2018-08-24T21:54:44.652Z,10.33
2018-08-24T21:57:15.708Z,9.43
2018-08-24T21:59:47.104Z,7.67
2018-08-24T22:02:18.266Z,7.20
2018-08-24T22:04:49.632Z,11.40
2018-08-24T22:07:21.896Z,10.03
2018-08-24T22:09:53.132Z,8.63
2018-08-24T22:12:25.025Z,10.23
2018-08-24T22:14:56.250Z,10.73
2018-08-24T22:17:27.352Z,8.53
2018-08-24T22:19:58.579Z,8.77
2018-08-24T22:22:30.104Z,7.73
2018-08-24T22:25:01.338Z,8.27
2018-08-24T22:27:32.519Z,8.53
2018-08-24T22:30:03.966Z,7.67
2018-08-24T22:32:35.325Z,9.63
2018-08-24T22:35:06.687Z,7.97
2018-08-24T22:37:38.840Z,10.47
2018-08-24T22:40:10.106Z,11.20
2018-08-24T22:42:43.843Z,7.60
2018-08-24T22:45:15.447Z,8.83
2018-08-24T22:47:46.560Z,9.63
2018-08-24T22:50:18.211Z,11.70
2018-08-24T22:52:49.495Z,10.50
2018-08-24T22:55:20.530Z,9.37
2018-08-24T22:57:51.883Z,9.20
2018-08-24T23:00:23.095Z,9.70
2018-08-24T23:02:54.492Z,7.97
2018-08-24T23:06:28.443Z,11.37
2018-08-24T23:08:59.810Z,8.67
2018-08-24T23:11:31.404Z,9.27
2018-08-24T23:14:04.046Z,9.27
2018-08-24T23:16:35.657Z,10.07
2018-08-24T23:19:07.239Z,9.83
2018-08-24T23:21:38.332Z,11.23
2018-08-24T23:24:09.703Z,10.60
2018-08-24T23:26:41.350Z,9.60
2018-08-24T23:29:12.533Z,9.37
2018-08-24T23:31:43.631Z,14.57
2018-08-24T23:34:14.982Z,11.03
2018-08-24T23:36:46.059Z,10.03
2018-08-24T23:39:17.588Z,11.93
2018-08-24T23:41:48.816Z,11.63
2018-08-24T23:44:20.380Z,8.97
2018-08-24T23:46:51.626Z,10.93
2018-08-24T23:49:22.833Z,8.63
2018-08-24T23:51:54.007Z,9.47
2018-08-24T23:54:25.664Z,10.03
2018-08-24T23:56:57.241Z,10.77
2018-08-24T23:59:28.363Z,13.23
